Data for 10/20/2008

Time Sea-Level Adjusted Pressure Absolute Pressure Temperature Relative Humidity Dew Point   
(mb) (inHg) (mb) (inHg) (C) (F) (%) (C) (F)
00:05 1023 30.21 852 25.16 6.4 43.6 86 4.3 39.8
00:10 1023 30.21 852 25.16 6.4 43.5 87 4.3 39.8
00:15 1023 30.21 852 25.16 6.3 43.4 86 4.2 39.6
00:20 1023 30.21 852 25.16 6.3 43.4 86 4.2 39.5
00:25 1023 30.21 852 25.16 6.3 43.3 86 4.1 39.4
00:30 1023 30.21 852 25.16 6.2 43.2 86 4.1 39.3
00:35 1023 30.21 852 25.16 6.1 43.1 86 4 39.1
00:40 1023 30.21 852 25.16 6.1 42.9 86 3.9 39.1
00:45 1023 30.21 852 25.16 6.1 43 87 4 39.2
00:50 1023 30.21 852 25.16 6 42.9 87 4 39.1
00:55 1023 30.21 852 25.16 6 42.7 86 3.8 38.9
01:00 1023 30.21 852 25.16 6 42.8 86 3.9 39
01:05 1023 30.21 852 25.16 5.9 42.7 87 3.9 39
01:10 1023 30.21 852 25.16 5.9 42.6 87 3.9 39.1
01:15 1023 30.21 852 25.16 5.8 42.4 88 3.9 39
01:20 1023 30.21 852 25.16 5.7 42.3 88 3.9 39
01:25 1023 30.21 852 25.16 5.7 42.3 88 3.9 38.9
01:30 1023 30.21 852 25.16 5.6 42.2 88 3.9 38.9
01:35 1023 30.21 852 25.16 5.7 42.2 88 3.9 39
01:40 1023 30.21 852 25.16 5.6 42.1 89 3.9 39
01:45 1023 30.21 852 25.16 5.6 42.1 89 4 39.2
01:50 1023 30.21 852 25.16 5.5 42 90 4 39.1
01:55 1023 30.21 852 25.16 5.5 42 90 4 39.1
02:00 1023 30.21 852 25.16 5.5 41.8 90 3.9 39.1
02:05 1023 30.21 852 25.16 5.4 41.8 90 3.9 39
02:10 1023 30.21 852 25.16 5.4 41.8 90 3.9 39
02:15 1022 30.18 852 25.16 5.4 41.8 90 3.8 38.9
02:20 1022 30.18 852 25.16 5.4 41.8 89 3.8 38.9
02:25 1022 30.18 852 25.16 5.4 41.8 89 3.8 38.8
02:30 1022 30.18 852 25.16 5.4 41.8 89 3.8 38.8
02:35 1022 30.18 851 25.13 5.4 41.7 89 3.7 38.7
02:40 1022 30.18 852 25.16 5.4 41.7 88 3.6 38.5
02:45 1022 30.18 852 25.16 5.4 41.7 88 3.6 38.5
02:50 1022 30.18 851 25.13 5.4 41.7 88 3.6 38.4
02:55 1022 30.18 851 25.13 5.4 41.6 88 3.5 38.4
03:00 1022 30.18 852 25.16 5.3 41.6 87 3.4 38.1
03:05 1022 30.18 852 25.16 5.4 41.7 87 3.4 38.1
03:10 1022 30.18 852 25.16 5.4 41.7 87 3.3 38
03:15 1022 30.18 852 25.16 5.4 41.7 87 3.4 38.1
03:20 1022 30.18 852 25.16 5.4 41.7 87 3.3 38
03:25 1022 30.18 852 25.16 5.3 41.6 87 3.3 38
03:30 1022 30.18 852 25.16 5.3 41.5 87 3.3 37.9
03:35 1022 30.18 851 25.13 5.2 41.4 87 3.3 37.9
03:40 1022 30.18 851 25.13 5.2 41.4 87 3.2 37.8
03:45 1022 30.18 851 25.13 5.2 41.4 88 3.3 38
03:50 1022 30.18 851 25.13 5.2 41.3 87 3.2 37.8
03:55 1022 30.18 851 25.13 5.2 41.3 87 3.2 37.8
04:00 1022 30.18 851 25.13 5.2 41.3 87 3.2 37.8
04:05 1022 30.18 851 25.13 5.2 41.4 87 3.2 37.7
04:10 1022 30.18 851 25.13 5.2 41.4 87 3.2 37.7
04:15 1022 30.18 851 25.13 5.2 41.4 87 3.2 37.7
04:20 1022 30.18 851 25.13 5.1 41.2 87 3.1 37.6
04:25 1022 30.18 851 25.13 5.2 41.3 87 3.1 37.6
04:30 1022 30.18 851 25.13 5.1 41.2 86 3 37.5
04:35 1022 30.18 851 25.13 5.2 41.3 86 3 37.4
04:40 1022 30.18 851 25.13 5.2 41.3 86 3 37.3
04:45 1022 30.18 851 25.13 5.2 41.3 85 2.9 37.2
04:50 1022 30.18 851 25.13 5.1 41.2 85 2.9 37.1
04:55 1022 30.18 851 25.13 5.2 41.3 85 2.8 37
05:00 1022 30.18 851 25.13 5.1 41.2 85 2.8 37.1
05:05 1022 30.18 851 25.13 5.1 41.1 85 2.8 37
05:10 1022 30.18 851 25.13 5 41.1 85 2.8 37.1
05:15 1022 30.18 851 25.13 5 41 86 2.8 37.1
05:20 1022 30.18 851 25.13 4.9 40.9 86 2.8 37.1
05:25 1022 30.18 851 25.13 5 40.9 86 2.9 37.2
05:30 1022 30.18 851 25.13 4.9 40.8 87 2.8 37.1
05:35 1022 30.18 851 25.13 4.9 40.8 87 2.8 37.1
05:40 1022 30.18 851 25.13 4.9 40.7 86 2.8 37
05:45 1021 30.15 851 25.13 4.8 40.6 86 2.7 36.9
05:50 1021 30.15 851 25.13 4.8 40.6 85 2.5 36.6
05:55 1021 30.15 851 25.13 4.8 40.6 85 2.5 36.6
06:00 1021 30.15 851 25.13 4.7 40.5 86 2.5 36.5
06:05 1021 30.15 851 25.13 4.7 40.5 86 2.5 36.5
06:10 1021 30.15 851 25.13 4.7 40.4 86 2.6 36.6
06:15 1021 30.15 851 25.13 4.7 40.4 86 2.6 36.6
06:20 1021 30.15 850 25.1 4.6 40.3 87 2.6 36.6
06:25 1021 30.15 850 25.1 4.6 40.3 87 2.6 36.7
06:30 1021 30.15 850 25.1 4.6 40.3 86 2.5 36.6
06:35 1021 30.15 850 25.1 4.5 40.1 87 2.6 36.6
06:40 1021 30.15 850 25.1 4.5 40.1 86 2.4 36.3
06:45 1021 30.15 850 25.1 4.5 40 86 2.3 36.1
06:50 1021 30.15 850 25.1 4.4 40 85 2.2 36
06:55 1021 30.15 850 25.1 4.3 39.8 85 2.1 35.8
07:00 1021 30.15 850 25.1 4.3 39.7 86 2.1 35.8
07:05 1021 30.15 850 25.1 4.2 39.5 86 2.1 35.7
07:10 1021 30.15 850 25.1 4.1 39.4 86 2 35.7
07:15 1021 30.15 850 25.1 4.2 39.5 86 2.1 35.7
07:20 1021 30.15 850 25.1 4.2 39.6 86 2 35.7
07:25 1021 30.15 850 25.1 4.2 39.6 85 2 35.5
07:30 1021 30.15 850 25.1 4.2 39.5 85 1.9 35.5
07:35 1021 30.15 850 25.1 4.1 39.4 85 1.9 35.3
07:40 1021 30.15 850 25.1 4.2 39.5 86 2 35.6
07:45 1021 30.15 850 25.1 4.2 39.5 85 1.9 35.4
07:50 1021 30.15 850 25.1 4.1 39.4 86 1.9 35.5
07:55 1021 30.15 850 25.1 4.1 39.4 85 1.8 35.3
08:00 1021 30.15 850 25.1 4.1 39.4 85 1.8 35.3
08:05 1021 30.15 850 25.1 4.1 39.4 85 1.8 35.2
08:10 1021 30.15 850 25.1 4.1 39.4 84 1.7 35
08:15 1021 30.15 850 25.1 4.2 39.6 83 1.7 35
08:20 1021 30.15 850 25.1 4.3 39.8 83 1.7 35
08:25 1021 30.15 850 25.1 4.4 39.9 82 1.6 34.9
08:30 1021 30.15 850 25.1 4.5 40.1 81 1.6 34.9
08:35 1021 30.15 850 25.1 4.7 40.5 81 1.6 35
08:40 1021 30.15 850 25.1 4.8 40.7 80 1.6 34.9
08:45 1021 30.15 850 25.1 4.9 40.9 79 1.6 34.9
08:50 1021 30.15 850 25.1 5.2 41.3 78 1.6 34.9
08:55 1021 30.15 850 25.1 5.4 41.7 77 1.7 35.1
09:00 1021 30.15 850 25.1 5.7 42.2 77 2 35.7
09:05 1021 30.15 850 25.1 5.7 42.2 77 1.9 35.5
09:10 1021 30.15 850 25.1 5.9 42.7 76 2 35.7
09:15 1021 30.15 850 25.1 5.7 42.3 81 2.7 36.9
09:20 1021 30.15 850 25.1 5.6 42 80 2.4 36.3
09:25 1020 30.12 850 25.1 5.7 42.3 81 2.7 36.9
09:30 1020 30.12 850 25.1 6 42.7 80 2.8 37.1
09:35 1020 30.12 850 25.1 5.8 42.4 83 3 37.5
09:40 1020 30.12 850 25.1 5.8 42.5 81 2.8 37
09:45 1020 30.12 850 25.1 6.4 43.5 76 2.5 36.6
09:50 1020 30.12 850 25.1 6.8 44.3 78 3.2 37.8
09:55 1020 30.12 850 25.1 6.7 44 78 3.1 37.6
10:00 1020 30.12 850 25.1 7.2 44.9 75 3 37.4
10:05 1020 30.12 850 25.1 7.3 45.1 74 3 37.3
10:10 1020 30.12 849 25.07 7 44.5 75 2.8 37
10:15 1020 30.12 849 25.07 7.1 44.7 76 3.1 37.6
10:20 1020 30.12 849 25.07 6.8 44.3 77 3 37.4
10:25 1020 30.12 849 25.07 6.9 44.5 75 2.8 37
10:30 1020 30.12 849 25.07 7.1 44.8 73 2.7 36.8
10:35 1020 30.12 849 25.07 7.6 45.8 72 2.9 37.3
10:40 1020 30.12 849 25.07 8.1 46.5 69 2.7 36.9
10:45 1020 30.12 849 25.07 8.6 47.4 69 3.2 37.7
10:50 1020 30.12 849 25.07 9.5 49 62 2.6 36.8
10:55 1020 30.12 849 25.07 9.5 49.1 63 2.9 37.2
11:00 1020 30.12 849 25.07 9.7 49.5 65 3.4 38.1
11:05 1019 30.09 849 25.07 10.4 50.6 59 2.7 36.9
11:10 1019 30.09 849 25.07 10.2 50.3 60 2.7 36.9
11:15 1019 30.09 848 25.04 9.7 49.5 61 2.6 36.7
11:20 1019 30.09 848 25.04 10.3 50.5 58 2.4 36.4
11:25 1019 30.09 848 25.04 11.1 51.9 55 2.4 36.3
11:30 1019 30.09 848 25.04 11.6 52.9 55 2.8 37.1
11:35 1019 30.09 848 25.04 12.3 54.2 50 2.4 36.3
11:40 1019 30.09 848 25.04 12.5 54.5 52 3 37.4
11:45 1019 30.09 848 25.04 12.5 54.5 50 2.4 36.4
11:50 1019 30.09 848 25.04 13.3 55.9 47 2.3 36.1
11:55 1019 30.09 848 25.04 13.4 56.1 48 2.6 36.7
12:00 1019 30.09 848 25.04 13.2 55.7 51 3.2 37.8
12:05 1019 30.09 848 25.04 11.8 53.2 61 4.5 40.1
12:10 1019 30.09 848 25.04 10.9 51.6 59 3.2 37.7
12:15 1019 30.09 848 25.04 11.3 52.4 61 4.1 39.3
12:20 1018 30.06 848 25.04 10.8 51.4 62 3.7 38.7
12:25 1018 30.06 847 25.01 11.4 52.5 56 3 37.4
12:30 1018 30.06 847 25.01 12.8 55.1 56 4.3 39.8
12:35 1018 30.06 847 25.01 12 53.6 56 3.6 38.5
12:40 1018 30.06 847 25.01 12.2 53.9 57 4 39.2
12:45 1018 30.06 847 25.01 12 53.7 54 3.2 37.7
12:50 1018 30.06 847 25.01 12.7 54.9 53 3.5 38.3
12:55 1018 30.06 847 25.01 13.6 56.5 49 3.2 37.8
13:00 1018 30.06 847 25.01 14.7 58.5 46 3.3 37.9
13:05 1018 30.06 847 25.01 15.1 59.3 46 3.8 38.8
13:10 1017 30.03 847 25.01 15.1 59.2 48 4.2 39.6
13:15 1017 30.03 847 25.01 14.4 57.9 49 4 39.2
13:20 1017 30.03 847 25.01 14.5 58.1 48 3.8 38.8
13:25 1017 30.03 847 25.01 14.5 58.1 49 4.1 39.4
13:30 1017 30.03 846 24.98 14.4 57.9 49 3.8 38.9
13:35 1017 30.03 846 24.98 14.3 57.8 50 4 39.2
13:40 1017 30.03 846 24.98 14.5 58.1 49 3.9 39.1
13:45 1017 30.03 846 24.98 14.5 58.1 49 4.1 39.3
13:50 1017 30.03 846 24.98 14.2 57.6 51 4.3 39.7
13:55 1017 30.03 846 24.98 13.7 56.7 53 4.5 40
14:00 1017 30.03 846 24.98 13.2 55.8 53 4 39.2
14:05 1017 30.03 846 24.98 13 55.5 53 3.7 38.7
14:10 1017 30.03 846 24.98 12.7 54.9 54 3.7 38.7
14:15 1017 30.03 846 24.98 12.5 54.5 54 3.4 38.2
14:20 1017 30.03 846 24.98 12.8 55.1 54 3.7 38.7
14:25 1016 30 846 24.98 13 55.5 53 3.7 38.7
14:30 1016 30 846 24.98 13.1 55.6 54 4 39.2
14:35 1016 30 846 24.98 12.9 55.3 53 3.8 38.8
14:40 1016 30 846 24.98 13.2 55.7 53 3.8 38.8
14:45 1016 30 845 24.95 13.4 56.1 53 4 39.2
14:50 1016 30 845 24.95 13.9 57 52 4.2 39.5
14:55 1016 30 845 24.95 14.1 57.4 52 4.4 39.9
15:00 1016 30 845 24.95 13.8 56.9 52 4.4 39.9
15:05 1016 30 845 24.95 13.8 56.8 52 4.2 39.5
15:10 1016 30 845 24.95 14.2 57.6 48 3.5 38.2
15:15 1016 30 845 24.95 14.8 58.6 47 3.6 38.5
15:20 1016 30 845 24.95 14.6 58.3 48 3.7 38.7
15:25 1016 30 845 24.95 15 58.9 49 4.3 39.7
15:30 1015 29.97 845 24.95 14.8 58.7 48 3.9 39.1
15:35 1015 29.97 845 24.95 15.2 59.3 46 3.6 38.5
15:40 1015 29.97 845 24.95 15.2 59.3 46 3.6 38.5
15:45 1016 30 845 24.95 15.2 59.3 37 0.9 33.5
15:50 1015 29.97 844 24.92 15.5 59.9 40 1.9 35.5
15:55 1015 29.97 844 24.92 15.8 60.5 38 1.8 35.2
16:00 1015 29.97 844 24.92 16.5 61.8 30 -1 30.1
16:05 1015 29.97 844 24.92 17.1 62.8 29 -0.8 30.6
16:10 1015 29.97 844 24.92 17.2 63 29 -1 30.3
16:15 1015 29.97 844 24.92 17.3 63.1 28 -1.5 29.3
16:20 1015 29.97 844 24.92 17.3 63.1 32 0.5 32.9
16:25 1015 29.97 844 24.92 17.3 63.1 32 0.7 33.3
16:30 1015 29.97 844 24.92 17.2 63 33 0.9 33.6
16:35 1015 29.97 844 24.92 17 62.6 33 0.8 33.4
16:40 1015 29.97 844 24.92 16.7 62.1 34 0.7 33.3
16:45 1015 29.97 844 24.92 16.3 61.4 38 2.2 35.9
16:50 1015 29.97 844 24.92 15.3 59.5 42 2.6 36.7
16:55 1015 29.97 844 24.92 14.6 58.4 43 2.3 36.1
17:00 1015 29.97 844 24.92 14.4 57.8 44 2.4 36.4
17:05 1015 29.97 844 24.92 13.8 56.8 49 3.3 38
17:10 1015 29.97 844 24.92 13.1 55.6 49 2.9 37.2
17:15 1015 29.97 844 24.92 12.9 55.2 50 2.7 36.9
17:20 1015 29.97 844 24.92 13 55.3 47 2.1 35.8
17:25 1015 29.97 844 24.92 13.3 55.9 41 0.4 32.7
17:30 1015 29.97 844 24.92 14 57.3 41 1.2 34.1
17:35 1015 29.97 844 24.92 14.7 58.4 39 1 33.7
17:40 1015 29.97 844 24.92 14.3 57.7 46 3 37.4
17:45 1015 29.97 844 24.92 13.6 56.5 45 2 35.6
17:50 1015 29.97 844 24.92 13.7 56.7 43 1.4 34.6
17:55 1014 29.94 844 24.92 13.9 57 43 1.6 34.9
18:00 1014 29.94 844 24.92 13.7 56.7 45 2.1 35.7
18:05 1014 29.94 844 24.92 13.4 56.1 46 2.1 35.8
18:10 1014 29.94 844 24.92 13.2 55.8 46 2 35.6
18:15 1015 29.97 844 24.92 13.2 55.8 45 1.6 34.8
18:20 1015 29.97 844 24.92 13.3 55.9 45 1.7 35.1
18:25 1014 29.94 844 24.92 13.2 55.8 44 1.4 34.6
18:30 1014 29.94 844 24.92 13.3 55.9 44 1.3 34.3
18:35 1014 29.94 844 24.92 13.3 56 44 1.3 34.3
18:40 1014 29.94 844 24.92 13.4 56.1 43 1.1 33.9
18:45 1014 29.94 844 24.92 13.5 56.2 42 1 33.7
18:50 1015 29.97 844 24.92 13.7 56.6 42 1.2 34.2
18:55 1015 29.97 844 24.92 13.4 56 44 1.6 34.8
19:00 1015 29.97 844 24.92 13.3 56 44 1.4 34.6
19:05 1014 29.94 844 24.92 13.1 55.6 45 1.7 35
19:10 1014 29.94 844 24.92 12.8 55.1 47 1.9 35.4
19:15 1014 29.94 844 24.92 12.8 55.1 45 1.4 34.4
19:20 1014 29.94 844 24.92 13 55.3 46 1.6 34.9
19:25 1014 29.94 844 24.92 12.9 55.3 47 1.8 35.3
19:30 1014 29.94 844 24.92 12.8 55 48 2 35.7
19:35 1014 29.94 844 24.92 12.7 54.8 47 1.7 35.1
19:40 1015 29.97 844 24.92 12.9 55.2 44 1 33.7
19:45 1015 29.97 844 24.92 13.4 56.1 43 1.1 33.9
19:50 1015 29.97 844 24.92 13.4 56.1 43 1.1 34
19:55 1015 29.97 844 24.92 13.4 56 42 0.7 33.3
20:00 1014 29.94 844 24.92 13.2 55.8 44 1.4 34.6
20:05 1014 29.94 844 24.92 12.8 55 45 1.1 33.9
20:10 1014 29.94 843 24.89 12.8 55 45 1.1 34
20:15 1014 29.94 843 24.89 12.7 54.8 46 1.5 34.7
20:20 1014 29.94 843 24.89 12.4 54.4 48 1.7 35.1
20:25 1014 29.94 843 24.89 12.3 54.2 48 1.7 35.1
20:30 1014 29.94 843 24.89 12.2 53.9 47 1.1 34.1
20:35 1014 29.94 843 24.89 12.6 54.8 47 1.6 34.9
20:40 1014 29.94 843 24.89 12.3 54.1 51 2.5 36.5
20:45 1014 29.94 843 24.89 11.8 53.2 50 1.8 35.3
20:50 1014 29.94 843 24.89 11.9 53.3 50 1.8 35.2
20:55 1013 29.91 843 24.89 11.8 53.3 48 1.4 34.5
21:00 1013 29.91 843 24.89 12.1 53.7 47 1.2 34.1
21:05 1013 29.91 843 24.89 12.2 54 46 1.1 33.9
21:10 1013 29.91 842 24.86 12.6 54.7 45 0.9 33.7
21:15 1013 29.91 842 24.86 13.1 55.5 43 0.9 33.6
21:20 1013 29.91 842 24.86 13.2 55.7 44 1.1 34
21:25 1013 29.91 842 24.86 13 55.4 44 1.2 34.1
21:30 1013 29.91 842 24.86 12.9 55.1 45 1.2 34.2
21:35 1013 29.91 842 24.86 12.7 54.8 45 1.2 34.1
21:40 1013 29.91 842 24.86 12.6 54.7 45 1.1 34
21:45 1013 29.91 842 24.86 12.8 55.1 41 0.1 32.2
21:50 1013 29.91 842 24.86 13.2 55.8 40 -0 31.9
21:55 1013 29.91 842 24.86 13.4 56 40 0.1 32.1
22:00 1013 29.91 842 24.86 13.2 55.7 42 0.5 32.9
22:05 1013 29.91 842 24.86 12.7 54.9 43 0.6 33.1
22:10 1013 29.91 842 24.86 12.4 54.4 44 0.5 32.9
22:15 1013 29.91 842 24.86 12.4 54.2 45 0.9 33.5
22:20 1013 29.91 842 24.86 12.1 53.8 46 0.9 33.7
22:25 1013 29.91 842 24.86 11.9 53.4 46 0.7 33.2
22:30 1013 29.91 842 24.86 12 53.5 45 0.4 32.7
22:35 1013 29.91 842 24.86 12.2 54 44 0.3 32.6
22:40 1013 29.91 842 24.86 12.6 54.6 42 0.1 32.1
22:45 1013 29.91 842 24.86 12.8 55.1 41 -0 31.9
22:50 1013 29.91 842 24.86 12.8 55.1 41 -0.1 31.8
22:55 1013 29.91 842 24.86 12.9 55.3 41 -0.1 31.8
23:00 1013 29.91 842 24.86 12.9 55.3 42 0.3 32.5
23:05 1013 29.91 842 24.86 12.8 55.1 42 0.4 32.7
23:10 1013 29.91 842 24.86 12.5 54.5 43 0.2 32.3
23:15 1013 29.91 842 24.86 12.3 54.1 43 0.2 32.3
23:20 1013 29.91 842 24.86 12.3 54.1 44 0.4 32.8
23:25 1013 29.91 842 24.86 12.2 53.9 43 -0 32
23:30 1013 29.91 842 24.86 12.2 53.9 41 -0.8 30.6
23:35 1013 29.91 842 24.86 12.6 54.6 35 -2.4 27.7
23:40 1013 29.91 842 24.86 13 55.4 37 -1.2 29.9
23:45 1013 29.91 843 24.89 10.8 51.4 59 3.2 37.8
23:50 1014 29.94 843 24.89 7.5 45.4 64 1.2 34.2
23:55 1014 29.94 843 24.89 6 42.9 67 0.4 32.7
24:00 1014 29.94 844 24.92 5.3 41.5 68 -0.1 31.8